Time;durP1;ratioP1;P1;durP2;ratioP2;P2;SDS_P1;SDS_P2;PMS_P1;PMS_P2;Temp;Humidity;BMP_temperature;BMP_pressure;BME280_temperature;BME280_humidity;BME280_pressure;Samples;Min_cycle;Max_cycle;Signal;HPM_P1;HPM_P2
2023/07/28 00:00:38;;;;;;;5.50;2.63;;;;;;;;;;5115465;28;20028;-61
2023/07/28 00:03:05;;;;;;;4.17;2.03;;;;;;;;;;5110458;28;20016;-60
2023/07/28 00:05:32;;;;;;;11.33;4.90;;;;;;;;;;5110881;28;20035;-60
2023/07/28 00:07:58;;;;;;;3.90;2.87;;;;;;;;;;5110658;28;20023;-60
2023/07/28 00:10:25;;;;;;;5.87;3.03;;;;;;;;;;5110822;28;20094;-60
2023/07/28 00:12:52;;;;;;;5.20;2.07;;;;;;;;;;5110705;28;20030;-60
2023/07/28 00:15:19;;;;;;;4.57;3.33;;;;;;;;;;5115550;28;20031;-61
2023/07/28 00:17:46;;;;;;;7.57;5.13;;;;;;;;;;5115641;28;20024;-60
2023/07/28 00:20:13;;;;;;;5.33;3.30;;;;;;;;;;5115291;28;20016;-60
2023/07/28 00:22:40;;;;;;;3.17;2.20;;;;;;;;;;5114888;28;20069;-61
2023/07/28 00:25:06;;;;;;;6.57;3.40;;;;;;;;;;5115211;28;20038;-60
2023/07/28 00:27:33;;;;;;;6.67;2.80;;;;;;;;;;5110584;28;20034;-60
2023/07/28 00:30:00;;;;;;;9.27;4.37;;;;;;;;;;5110513;28;20055;-60
2023/07/28 00:32:27;;;;;;;7.73;3.93;;;;;;;;;;5108894;28;20024;-61
2023/07/28 00:34:54;;;;;;;3.83;2.50;;;;;;;;;;5110576;28;20024;-60
2023/07/28 00:37:20;;;;;;;5.57;2.97;;;;;;;;;;5091974;28;20115;-61
2023/07/28 00:39:47;;;;;;;3.57;2.63;;;;;;;;;;5115017;28;20081;-60
2023/07/28 00:42:14;;;;;;;4.10;2.63;;;;;;;;;;5114529;28;20447;-60
2023/07/28 00:44:41;;;;;;;8.13;2.30;;;;;;;;;;5114198;28;20043;-61
2023/07/28 00:47:07;;;;;;;11.97;3.43;;;;;;;;;;5113778;28;20019;-61
2023/07/28 00:49:35;;;;;;;13.60;3.57;;;;;;;;;;5114895;28;20363;-61
2023/07/28 00:52:01;;;;;;;8.03;3.47;;;;;;;;;;5109849;28;20529;-61
2023/07/28 00:54:28;;;;;;;3.13;1.90;;;;;;;;;;5109810;28;20092;-61
2023/07/28 00:56:56;;;;;;;4.70;1.87;;;;;;;;;;5107884;28;20020;-61
2023/07/28 00:59:23;;;;;;;2.20;1.67;;;;;;;;;;5109261;28;20024;-61
2023/07/28 01:01:50;;;;;;;3.70;2.30;;;;;;;;;;5109360;28;20034;-61
2023/07/28 01:04:16;;;;;;;3.03;1.73;;;;;;;;;;5113859;28;20096;-60
2023/07/28 01:06:43;;;;;;;2.00;1.57;;;;;;;;;;5114463;28;20408;-61
2023/07/28 01:09:12;;;;;;;3.63;2.47;;;;;;;;;;5114582;28;20378;-61
2023/07/28 01:11:38;;;;;;;9.17;2.50;;;;;;;;;;5114373;28;20016;-60
2023/07/28 01:14:05;;;;;;;3.60;2.00;;;;;;;;;;5113962;28;20023;-61
2023/07/28 01:16:32;;;;;;;4.10;2.53;;;;;;;;;;5110998;28;20027;-61
2023/07/28 01:18:59;;;;;;;2.10;1.57;;;;;;;;;;5109383;28;20039;-60
2023/07/28 01:21:30;;;;;;;2.33;1.60;;;;;;;;;;5109375;28;20018;-61
2023/07/28 01:23:57;;;;;;;4.13;2.20;;;;;;;;;;5108843;28;20077;-61
2023/07/28 01:26:35;;;;;;;4.67;2.37;;;;;;;;;;5109340;28;20028;-61
2023/07/28 01:29:03;;;;;;;6.87;2.43;;;;;;;;;;5113414;28;20027;-60
2023/07/28 01:31:30;;;;;;;4.90;2.17;;;;;;;;;;5114103;28;20015;-61
2023/07/28 01:33:57;;;;;;;2.97;2.03;;;;;;;;;;5113790;28;20096;-61
2023/07/28 01:36:24;;;;;;;2.07;1.23;;;;;;;;;;5114002;28;20049;-61
2023/07/28 01:38:50;;;;;;;6.40;2.97;;;;;;;;;;5113410;28;20372;-61
2023/07/28 01:41:17;;;;;;;3.77;2.60;;;;;;;;;;5110779;28;20076;-61
2023/07/28 01:43:44;;;;;;;5.23;2.87;;;;;;;;;;5108392;28;20036;-61
2023/07/28 01:46:11;;;;;;;6.10;2.73;;;;;;;;;;5109137;28;20028;-61
2023/07/28 01:48:38;;;;;;;3.03;2.13;;;;;;;;;;5108762;28;20031;-61
2023/07/28 01:51:05;;;;;;;5.53;2.63;;;;;;;;;;5108816;28;20099;-61
2023/07/28 01:53:31;;;;;;;3.37;2.10;;;;;;;;;;5112292;28;20474;-61
2023/07/28 01:56:00;;;;;;;3.67;2.00;;;;;;;;;;5113525;28;20407;-61
2023/07/28 01:58:27;;;;;;;4.50;2.00;;;;;;;;;;5113400;28;20019;-61
2023/07/28 02:00:54;;;;;;;4.63;2.37;;;;;;;;;;5113245;28;20024;-60
2023/07/28 02:03:21;;;;;;;5.20;2.73;;;;;;;;;;5113730;28;20047;-61
2023/07/28 02:05:47;;;;;;;2.73;2.10;;;;;;;;;;5110732;28;20646;-61
2023/07/28 02:08:14;;;;;;;4.80;2.47;;;;;;;;;;5108244;28;20474;-61
2023/07/28 02:10:41;;;;;;;7.33;1.90;;;;;;;;;;5108535;28;20375;-60
2023/07/28 02:13:08;;;;;;;4.27;2.00;;;;;;;;;;5108656;28;20114;-61
2023/07/28 02:15:34;;;;;;;4.70;1.97;;;;;;;;;;5108427;28;20034;-60
2023/07/28 02:18:01;;;;;;;3.03;2.10;;;;;;;;;;5110967;28;20051;-60
2023/07/28 02:20:28;;;;;;;3.60;2.00;;;;;;;;;;5113025;28;20027;-60
2023/07/28 02:22:56;;;;;;;4.47;2.00;;;;;;;;;;5113373;28;20474;-61
2023/07/28 02:25:22;;;;;;;3.43;1.77;;;;;;;;;;5112823;28;20043;-61
2023/07/28 02:27:49;;;;;;;3.07;1.67;;;;;;;;;;5113014;28;20118;-60
2023/07/28 02:30:16;;;;;;;3.13;1.83;;;;;;;;;;5110823;28;20031;-61
2023/07/28 02:32:43;;;;;;;2.67;1.93;;;;;;;;;;5108112;28;20020;-61
2023/07/28 02:35:10;;;;;;;6.57;2.10;;;;;;;;;;5108063;28;20023;-60
2023/07/28 02:37:37;;;;;;;4.10;1.83;;;;;;;;;;5107736;28;20455;-61
2023/07/28 02:40:04;;;;;;;3.53;1.93;;;;;;;;;;5108187;28;20028;-61
2023/07/28 02:42:33;;;;;;;9.20;3.03;;;;;;;;;;5110283;28;20026;-61
2023/07/28 02:45:00;;;;;;;4.17;1.73;;;;;;;;;;5112726;28;20179;-61
2023/07/28 02:47:27;;;;;;;5.57;2.10;;;;;;;;;;5112635;28;20024;-60
2023/07/28 02:49:54;;;;;;;3.03;2.17;;;;;;;;;;5112829;28;20463;-61
2023/07/28 02:52:20;;;;;;;2.77;2.10;;;;;;;;;;5112066;28;20439;-61
2023/07/28 02:54:47;;;;;;;5.33;3.20;;;;;;;;;;5110324;28;20511;-61
2023/07/28 02:57:14;;;;;;;12.37;2.73;;;;;;;;;;5107651;28;20101;-61
2023/07/28 02:59:41;;;;;;;4.73;2.50;;;;;;;;;;5107392;28;20020;-61
2023/07/28 03:02:08;;;;;;;5.60;2.80;;;;;;;;;;5107865;28;21536;-61
2023/07/28 03:04:34;;;;;;;4.47;2.87;;;;;;;;;;5107701;28;20034;-61
2023/07/28 03:07:02;;;;;;;3.57;2.00;;;;;;;;;;5109672;28;20023;-61
2023/07/28 03:09:29;;;;;;;21.73;3.23;;;;;;;;;;5112010;28;20038;-61
2023/07/28 03:11:55;;;;;;;3.87;2.50;;;;;;;;;;5112404;28;20019;-61
2023/07/28 03:14:22;;;;;;;13.13;3.63;;;;;;;;;;5112386;28;20036;-61
2023/07/28 03:16:49;;;;;;;7.03;2.77;;;;;;;;;;5112034;28;20042;-61
2023/07/28 03:19:17;;;;;;;6.17;3.13;;;;;;;;;;5110103;28;20020;-61
2023/07/28 03:21:44;;;;;;;11.20;3.57;;;;;;;;;;5106821;28;20126;-61
2023/07/28 03:24:11;;;;;;;25.20;2.73;;;;;;;;;;5107294;28;20032;-61
2023/07/28 03:26:37;;;;;;;6.40;2.47;;;;;;;;;;5107146;28;20115;-61
2023/07/28 03:29:04;;;;;;;7.17;2.80;;;;;;;;;;5107524;28;20070;-61
2023/07/28 03:31:31;;;;;;;6.83;3.27;;;;;;;;;;5108872;28;20035;-60
2023/07/28 03:33:58;;;;;;;8.23;3.53;;;;;;;;;;5111962;28;20453;-61
2023/07/28 03:36:25;;;;;;;9.83;3.07;;;;;;;;;;5112241;28;20374;-61
2023/07/28 03:38:52;;;;;;;6.90;3.17;;;;;;;;;;5112337;28;20084;-61
2023/07/28 03:41:18;;;;;;;3.33;2.50;;;;;;;;;;5112384;28;20494;-60
2023/07/28 03:43:46;;;;;;;3.67;2.60;;;;;;;;;;5111389;28;20027;-61
2023/07/28 03:46:13;;;;;;;5.50;3.57;;;;;;;;;;5107344;28;20031;-61
2023/07/28 03:48:39;;;;;;;2.10;1.90;;;;;;;;;;5107410;28;20482;-60
2023/07/28 03:51:06;;;;;;;2.17;1.60;;;;;;;;;;5107241;28;20020;-61
2023/07/28 03:53:35;;;;;;;3.47;2.40;;;;;;;;;;5107297;28;20110;-60
2023/07/28 03:56:02;;;;;;;4.97;2.20;;;;;;;;;;5107854;28;20092;-60
2023/07/28 03:58:29;;;;;;;2.90;1.80;;;;;;;;;;5112063;28;20024;-60
2023/07/28 04:00:56;;;;;;;3.13;2.10;;;;;;;;;;5111546;28;20055;-61
2023/07/28 04:03:23;;;;;;;2.07;1.50;;;;;;;;;;5112233;28;20043;-60
2023/07/28 04:05:49;;;;;;;8.00;3.27;;;;;;;;;;5112318;28;20028;-61
2023/07/28 04:08:16;;;;;;;3.03;1.97;;;;;;;;;;5115325;28;20023;-60
2023/07/28 04:10:43;;;;;;;4.27;2.13;;;;;;;;;;5110747;28;20024;-61
2023/07/28 04:13:10;;;;;;;3.80;2.03;;;;;;;;;;5110793;28;20034;-61
2023/07/28 04:15:37;;;;;;;8.83;2.30;;;;;;;;;;5110885;28;20046;-60
2023/07/28 04:18:04;;;;;;;2.30;1.83;;;;;;;;;;5110521;28;20029;-61
2023/07/28 04:20:30;;;;;;;7.83;1.93;;;;;;;;;;5110736;28;20501;-61
2023/07/28 04:22:57;;;;;;;14.63;2.37;;;;;;;;;;5115756;28;20535;-61
2023/07/28 04:25:24;;;;;;;8.83;2.97;;;;;;;;;;5114887;28;20036;-60
2023/07/28 04:27:51;;;;;;;11.23;2.20;;;;;;;;;;5115458;28;20016;-60
2023/07/28 04:30:18;;;;;;;4.40;1.83;;;;;;;;;;5115235;28;20110;-60
2023/07/28 04:32:44;;;;;;;2.83;1.80;;;;;;;;;;5115331;28;20032;-61
2023/07/28 04:35:11;;;;;;;6.47;2.40;;;;;;;;;;5110585;28;20027;-60
2023/07/28 04:37:38;;;;;;;3.70;1.83;;;;;;;;;;5110478;28;20028;-61
2023/07/28 04:40:05;;;;;;;1.83;1.23;;;;;;;;;;5110307;28;20028;-61
2023/07/28 04:42:32;;;;;;;3.27;2.23;;;;;;;;;;5110159;28;20035;-60
2023/07/28 04:44:59;;;;;;;6.17;1.93;;;;;;;;;;5110079;28;20028;-61
2023/07/28 04:47:25;;;;;;;2.90;2.13;;;;;;;;;;5114813;28;20060;-61
2023/07/28 04:49:52;;;;;;;2.73;2.00;;;;;;;;;;5115090;28;20023;-61
2023/07/28 04:52:19;;;;;;;4.10;1.87;;;;;;;;;;5114551;28;20191;-60
2023/07/28 04:54:46;;;;;;;4.53;1.77;;;;;;;;;;5114907;28;20016;-60
2023/07/28 04:57:13;;;;;;;3.10;2.07;;;;;;;;;;5114887;28;20563;-60
2023/07/28 04:59:39;;;;;;;2.47;1.37;;;;;;;;;;5110410;28;20050;-61
2023/07/28 05:02:07;;;;;;;4.00;2.03;;;;;;;;;;5109760;28;20026;-61
2023/07/28 05:04:33;;;;;;;4.57;2.40;;;;;;;;;;5109785;28;20498;-60
2023/07/28 05:07:00;;;;;;;9.63;2.67;;;;;;;;;;5109917;28;20035;-61
2023/07/28 05:09:28;;;;;;;6.00;2.33;;;;;;;;;;5109056;28;20316;-61
2023/07/28 05:11:54;;;;;;;4.17;2.37;;;;;;;;;;5113283;28;20020;-61
2023/07/28 05:14:21;;;;;;;7.50;2.20;;;;;;;;;;5114569;28;20079;-60
2023/07/28 05:16:48;;;;;;;12.67;2.47;;;;;;;;;;5114279;28;20102;-60
2023/07/28 05:19:15;;;;;;;15.37;2.40;;;;;;;;;;5113561;28;20027;-60
2023/07/28 05:21:42;;;;;;;6.17;2.10;;;;;;;;;;5114375;28;20023;-60
2023/07/28 05:24:09;;;;;;;5.77;2.70;;;;;;;;;;5111159;28;20036;-61
2023/07/28 05:26:35;;;;;;;3.03;1.83;;;;;;;;;;5109003;28;20044;-59
2023/07/28 05:29:02;;;;;;;3.77;2.17;;;;;;;;;;5103515;28;20051;-61
2023/07/28 05:31:30;;;;;;;4.67;1.87;;;;;;;;;;5108376;28;20378;-60
2023/07/28 05:33:56;;;;;;;5.93;2.60;;;;;;;;;;5109383;28;20414;-62
2023/07/28 05:36:24;;;;;;;4.57;2.13;;;;;;;;;;5113908;28;20032;-62
2023/07/28 05:38:53;;;;;;;2.93;1.90;;;;;;;;;;5114111;28;20592;-60
2023/07/28 05:41:20;;;;;;;3.43;2.20;;;;;;;;;;5113650;28;20070;-61
2023/07/28 05:43:47;;;;;;;3.70;2.07;;;;;;;;;;5113699;28;20015;-60
2023/07/28 05:46:13;;;;;;;3.67;2.00;;;;;;;;;;5111854;28;20059;-62
2023/07/28 05:48:40;;;;;;;5.83;2.40;;;;;;;;;;5108493;28;20028;-62
2023/07/28 05:51:07;;;;;;;26.03;2.60;;;;;;;;;;5108248;28;20020;-62
2023/07/28 05:53:34;;;;;;;7.67;2.40;;;;;;;;;;5108121;28;20096;-61
2023/07/28 05:56:01;;;;;;;2.47;1.77;;;;;;;;;;5090433;28;20070;-60
2023/07/28 05:58:27;;;;;;;3.53;1.60;;;;;;;;;;5113598;28;20028;-62
2023/07/28 06:00:54;;;;;;;4.47;2.13;;;;;;;;;;5113775;28;20028;-59
2023/07/28 06:03:21;;;;;;;3.47;1.90;;;;;;;;;;5113542;28;20019;-60
2023/07/28 06:05:48;;;;;;;11.50;3.40;;;;;;;;;;5113262;28;20038;-60
2023/07/28 06:08:15;;;;;;;3.97;1.93;;;;;;;;;;5112336;28;20024;-60
2023/07/28 06:10:41;;;;;;;3.17;1.70;;;;;;;;;;5107840;28;20482;-60
2023/07/28 06:13:08;;;;;;;3.07;1.77;;;;;;;;;;5108036;28;20420;-60
2023/07/28 06:15:36;;;;;;;2.20;1.10;;;;;;;;;;5107394;28;20024;-60
2023/07/28 06:18:03;;;;;;;3.07;1.77;;;;;;;;;;5107587;28;20058;-60
2023/07/28 06:20:30;;;;;;;2.30;1.40;;;;;;;;;;5113190;28;20015;-60
2023/07/28 06:22:57;;;;;;;2.27;1.10;;;;;;;;;;5113427;28;20034;-60
2023/07/28 06:25:24;;;;;;;2.77;1.63;;;;;;;;;;5112872;28;20110;-61
2023/07/28 06:27:51;;;;;;;1.97;1.30;;;;;;;;;;5112995;28;20451;-60
2023/07/28 06:30:17;;;;;;;1.47;1.27;;;;;;;;;;5112107;28;20135;-60
2023/07/28 06:32:44;;;;;;;2.30;1.83;;;;;;;;;;5107270;28;20083;-60
2023/07/28 06:35:11;;;;;;;3.30;1.40;;;;;;;;;;5107040;28;20427;-60
2023/07/28 06:37:38;;;;;;;1.80;1.40;;;;;;;;;;5107345;28;20031;-60
2023/07/28 06:40:07;;;;;;;0.70;0.70;;;;;;;;;;5107292;28;20015;-60
2023/07/28 06:42:37;;;;;;;3.03;1.80;;;;;;;;;;5112316;28;20016;-60
2023/07/28 06:45:04;;;;;;;3.63;2.13;;;;;;;;;;5112595;28;20553;-60
2023/07/28 06:47:31;;;;;;;2.63;1.37;;;;;;;;;;5112671;28;20035;-60
2023/07/28 06:49:58;;;;;;;4.33;1.77;;;;;;;;;;5112366;28;20028;-60
2023/07/28 06:52:24;;;;;;;2.73;1.70;;;;;;;;;;5112728;28;20031;-60
2023/07/28 06:54:52;;;;;;;1.80;1.33;;;;;;;;;;5107216;28;20024;-60
2023/07/28 06:57:19;;;;;;;13.27;1.53;;;;;;;;;;5106875;28;20030;-60
2023/07/28 06:59:45;;;;;;;3.03;1.43;;;;;;;;;;5107036;28;20016;-60
2023/07/28 07:02:12;;;;;;;4.00;1.10;;;;;;;;;;5107130;28;20061;-60
2023/07/28 07:04:39;;;;;;;3.53;1.63;;;;;;;;;;5111511;28;20532;-60
2023/07/28 07:07:06;;;;;;;3.47;1.10;;;;;;;;;;5112092;28;20532;-60
2023/07/28 07:09:33;;;;;;;1.77;1.13;;;;;;;;;;5112593;28;20020;-60
2023/07/28 07:11:59;;;;;;;1.27;0.93;;;;;;;;;;5112562;28;20555;-60
2023/07/28 07:14:26;;;;;;;0.80;0.73;;;;;;;;;;5112541;28;20385;-60
2023/07/28 07:16:53;;;;;;;1.40;0.93;;;;;;;;;;5107325;28;20035;-61
2023/07/28 07:19:20;;;;;;;4.17;1.20;;;;;;;;;;5107038;28;20027;-60
2023/07/28 07:21:48;;;;;;;3.70;1.73;;;;;;;;;;5106943;28;20016;-60
2023/07/28 07:24:16;;;;;;;3.63;1.70;;;;;;;;;;5106662;28;20028;-60
2023/07/28 07:26:43;;;;;;;2.57;1.47;;;;;;;;;;5110881;28;20034;-60
2023/07/28 07:29:09;;;;;;;3.30;1.63;;;;;;;;;;5112730;28;20529;-60
2023/07/28 07:31:36;;;;;;;4.13;1.97;;;;;;;;;;5112482;28;20024;-59
2023/07/28 07:34:04;;;;;;;2.30;1.57;;;;;;;;;;5112194;28;20027;-60
2023/07/28 07:36:31;;;;;;;1.20;0.77;;;;;;;;;;5112211;28;20034;-60
2023/07/28 07:38:58;;;;;;;1.37;0.70;;;;;;;;;;5107414;28;20106;-60
2023/07/28 07:41:25;;;;;;;1.80;1.40;;;;;;;;;;5107737;28;20111;-60
2023/07/28 07:43:53;;;;;;;2.07;1.50;;;;;;;;;;5110624;28;20031;-60
2023/07/28 07:46:21;;;;;;;1.67;1.07;;;;;;;;;;5092417;28;20486;-60
2023/07/28 07:48:47;;;;;;;1.90;0.90;;;;;;;;;;5113708;28;20044;-60
2023/07/28 07:51:16;;;;;;;1.77;1.20;;;;;;;;;;5115907;28;20424;-60
2023/07/28 07:53:42;;;;;;;4.43;1.33;;;;;;;;;;5115939;28;20024;-60
2023/07/28 07:56:10;;;;;;;3.83;1.20;;;;;;;;;;5116032;28;20084;-60
2023/07/28 07:58:37;;;;;;;2.17;1.40;;;;;;;;;;5115806;28;20020;-60
2023/07/28 08:01:04;;;;;;;1.63;1.10;;;;;;;;;;5112162;28;20034;-60
2023/07/28 08:03:35;;;;;;;1.67;1.20;;;;;;;;;;5110504;28;20028;-60
2023/07/28 08:06:03;;;;;;;3.13;1.60;;;;;;;;;;5110247;28;20039;-61
2023/07/28 08:08:30;;;;;;;1.87;1.33;;;;;;;;;;5109957;28;20039;-60
2023/07/28 08:10:57;;;;;;;2.43;1.13;;;;;;;;;;5112978;28;20030;-60
2023/07/28 08:13:25;;;;;;;2.70;1.73;;;;;;;;;;5115908;28;20022;-60
2023/07/28 08:15:51;;;;;;;2.20;1.40;;;;;;;;;;5115838;28;20027;-60
2023/07/28 08:18:18;;;;;;;2.50;1.53;;;;;;;;;;5115774;28;20023;-60
2023/07/28 08:20:45;;;;;;;2.03;1.20;;;;;;;;;;5115531;28;20084;-60
2023/07/28 08:23:12;;;;;;;4.50;2.67;;;;;;;;;;5111962;28;20076;-60
2023/07/28 08:25:39;;;;;;;1.87;1.20;;;;;;;;;;5109664;28;20024;-60
2023/07/28 08:28:05;;;;;;;4.73;1.77;;;;;;;;;;5109745;28;20027;-60
2023/07/28 08:30:32;;;;;;;4.47;1.30;;;;;;;;;;5109737;28;20036;-60
2023/07/28 08:32:59;;;;;;;4.07;1.73;;;;;;;;;;5112500;28;20032;-60
2023/07/28 08:35:27;;;;;;;3.23;1.77;;;;;;;;;;5115333;28;20096;-60
2023/07/28 08:37:53;;;;;;;5.67;0.87;;;;;;;;;;5115257;28;20036;-60
2023/07/28 08:40:20;;;;;;;3.40;1.60;;;;;;;;;;5114794;28;20363;-60
2023/07/28 08:42:49;;;;;;;8.53;1.97;;;;;;;;;;5114653;28;20055;-60
2023/07/28 08:45:16;;;;;;;1.47;1.13;;;;;;;;;;5112126;28;20046;-60
2023/07/28 08:47:43;;;;;;;2.17;1.67;;;;;;;;;;5109431;28;20027;-61
2023/07/28 08:50:11;;;;;;;2.10;1.47;;;;;;;;;;5109214;28;20042;-60
2023/07/28 08:52:37;;;;;;;2.03;1.10;;;;;;;;;;5108236;28;20031;-60
2023/07/28 08:55:04;;;;;;;12.83;1.80;;;;;;;;;;5111718;28;20042;-60
2023/07/28 08:57:31;;;;;;;2.43;0.83;;;;;;;;;;5114749;28;20064;-60
2023/07/28 08:59:58;;;;;;;3.47;1.17;;;;;;;;;;5114299;28;20028;-60
2023/07/28 09:02:25;;;;;;;3.87;1.97;;;;;;;;;;5114924;28;20023;-60
2023/07/28 09:04:52;;;;;;;1.50;1.20;;;;;;;;;;5114619;28;20039;-60
2023/07/28 09:07:18;;;;;;;1.93;1.17;;;;;;;;;;5112217;28;20554;-60
2023/07/28 09:09:46;;;;;;;1.13;0.80;;;;;;;;;;5108832;28;20031;-60
2023/07/28 09:12:13;;;;;;;1.13;0.80;;;;;;;;;;5108840;28;20509;-60
2023/07/28 09:14:40;;;;;;;3.27;1.33;;;;;;;;;;5108779;28;20032;-60
2023/07/28 09:17:08;;;;;;;1.37;1.10;;;;;;;;;;5110425;28;20023;-60
2023/07/28 09:19:35;;;;;;;2.57;1.50;;;;;;;;;;5114172;28;20546;-60
2023/07/28 09:22:02;;;;;;;6.93;1.17;;;;;;;;;;5110142;28;20059;-60
2023/07/28 09:24:32;;;;;;;11.87;2.20;;;;;;;;;;5114353;28;20032;-60
2023/07/28 09:27:00;;;;;;;6.07;1.60;;;;;;;;;;5114428;28;20035;-60
2023/07/28 09:29:30;;;;;;;2.27;1.40;;;;;;;;;;5111439;28;20102;-60
2023/07/28 09:32:07;;;;;;;2.33;1.50;;;;;;;;;;5108559;28;20027;-60
2023/07/28 09:34:33;;;;;;;2.40;1.60;;;;;;;;;;5108619;28;20024;-60
2023/07/28 09:37:01;;;;;;;1.50;1.07;;;;;;;;;;5108519;28;20027;-60
2023/07/28 09:39:28;;;;;;;2.40;1.37;;;;;;;;;;5109980;28;20076;-60
2023/07/28 09:41:58;;;;;;;2.27;1.30;;;;;;;;;;5114024;28;20020;-60
2023/07/28 09:44:25;;;;;;;3.23;1.60;;;;;;;;;;5113341;28;20042;-60
2023/07/28 09:46:53;;;;;;;2.23;1.20;;;;;;;;;;5114031;28;20106;-60
2023/07/28 09:49:25;;;;;;;1.67;1.10;;;;;;;;;;5113529;28;20024;-60
2023/07/28 09:51:54;;;;;;;2.57;1.03;;;;;;;;;;5111033;28;20028;-60
2023/07/28 09:54:29;;;;;;;1.10;0.83;;;;;;;;;;5108532;28;20027;-60
2023/07/28 09:57:00;;;;;;;2.13;1.10;;;;;;;;;;5107732;28;20027;-60
2023/07/28 09:59:32;;;;;;;1.63;0.97;;;;;;;;;;5107964;28;20474;-60
2023/07/28 10:02:00;;;;;;;3.37;1.30;;;;;;;;;;5110380;28;20027;-60
2023/07/28 10:04:27;;;;;;;1.10;1.00;;;;;;;;;;5113246;28;20126;-60
2023/07/28 10:06:57;;;;;;;2.13;1.00;;;;;;;;;;5113376;28;20016;-60
2023/07/28 10:09:25;;;;;;;0.60;0.60;;;;;;;;;;5113204;28;20023;-60
2023/07/28 10:11:52;;;;;;;1.30;0.63;;;;;;;;;;5113599;28;20470;-60
2023/07/28 10:14:30;;;;;;;1.53;0.67;;;;;;;;;;5110646;28;20023;-60
2023/07/28 10:16:58;;;;;;;3.20;1.23;;;;;;;;;;5087378;28;20047;-60
2023/07/28 10:19:28;;;;;;;2.90;0.97;;;;;;;;;;5087402;28;20071;-60
2023/07/28 10:22:01;;;;;;;0.50;0.50;;;;;;;;;;5087447;28;20070;-60
2023/07/28 10:24:46;;;;;;;4.23;1.40;;;;;;;;;;5089811;28;20519;-62
2023/07/28 10:27:28;;;;;;;1.25;0.90;;;;;;;;;;5092875;28;20024;-60
2023/07/28 10:29:59;;;;;;;0.80;0.60;;;;;;;;;;5092562;28;20050;-60
2023/07/28 10:32:29;;;;;;;2.23;1.07;;;;;;;;;;5092579;28;20032;-60
2023/07/28 10:35:02;;;;;;;0.90;0.67;;;;;;;;;;5096070;28;20076;-60
2023/07/28 10:37:29;;;;;;;5.77;2.00;;;;;;;;;;5107731;28;20028;-60
2023/07/28 10:40:14;;;;;;;1.03;0.70;;;;;;;;;;5107477;28;20023;-60
2023/07/28 10:42:41;;;;;;;0.98;0.60;;;;;;;;;;5107368;28;20090;-60
2023/07/28 10:45:09;;;;;;;1.73;1.00;;;;;;;;;;5107036;28;20035;-60
2023/07/28 10:47:36;;;;;;;2.40;0.93;;;;;;;;;;5111933;28;20051;-59
2023/07/28 10:50:06;;;;;;;0.87;0.80;;;;;;;;;;5112707;28;20479;-59
2023/07/28 10:52:33;;;;;;;3.77;1.53;;;;;;;;;;5112800;28;20030;-60
2023/07/28 10:54:59;;;;;;;1.27;0.80;;;;;;;;;;5112561;28;20128;-60
2023/07/28 10:57:26;;;;;;;1.60;0.83;;;;;;;;;;5112412;28;20024;-59
2023/07/28 10:59:53;;;;;;;1.27;0.87;;;;;;;;;;5107372;28;20036;-60
2023/07/28 11:02:20;;;;;;;1.47;0.77;;;;;;;;;;5107105;28;20472;-60
2023/07/28 11:04:47;;;;;;;1.43;1.00;;;;;;;;;;5106966;28;20028;-60
2023/07/28 11:07:14;;;;;;;0.90;0.80;;;;;;;;;;5106774;28;20103;-62
2023/07/28 11:09:41;;;;;;;1.30;0.93;;;;;;;;;;5111516;28;20052;-60
2023/07/28 11:12:10;;;;;;;3.27;1.40;;;;;;;;;;5112226;28;20435;-59
2023/07/28 11:14:37;;;;;;;0.77;0.60;;;;;;;;;;5112349;28;20098;-60
2023/07/28 11:17:06;;;;;;;0.87;0.83;;;;;;;;;;5115032;28;20031;-59
2023/07/28 11:19:34;;;;;;;11.87;0.87;;;;;;;;;;5116505;28;20474;-60
2023/07/28 11:22:01;;;;;;;2.70;1.30;;;;;;;;;;5111546;28;20092;-60
2023/07/28 11:24:28;;;;;;;0.57;0.57;;;;;;;;;;5111182;28;20030;-60
2023/07/28 11:26:55;;;;;;;5.07;1.00;;;;;;;;;;5111059;28;20032;-59
2023/07/28 11:29:22;;;;;;;1.50;0.90;;;;;;;;;;5111063;28;20089;-60
2023/07/28 11:31:49;;;;;;;1.73;1.20;;;;;;;;;;5114586;28;20828;-60
2023/07/28 11:34:16;;;;;;;2.33;1.10;;;;;;;;;;5116650;28;20590;-59
2023/07/28 11:36:43;;;;;;;1.73;0.87;;;;;;;;;;5116404;28;20094;-60
2023/07/28 11:39:10;;;;;;;1.87;0.93;;;;;;;;;;5116028;28;20027;-59
2023/07/28 11:41:37;;;;;;;1.57;0.80;;;;;;;;;;5116466;28;20016;-59
2023/07/28 11:44:06;;;;;;;2.70;1.07;;;;;;;;;;5111958;28;20375;-60
2023/07/28 11:46:42;;;;;;;0.87;0.70;;;;;;;;;;5110764;28;20020;-59
2023/07/28 11:49:18;;;;;;;1.47;0.77;;;;;;;;;;5110361;28;20062;-60
2023/07/28 11:51:48;;;;;;;1.10;0.80;;;;;;;;;;5110415;28;20089;-59
2023/07/28 11:54:15;;;;;;;3.87;1.03;;;;;;;;;;5114427;28;20035;-59
2023/07/28 11:56:43;;;;;;;1.67;0.83;;;;;;;;;;5115873;28;20470;-60
2023/07/28 11:59:10;;;;;;;1.87;1.03;;;;;;;;;;5115796;28;20032;-59
2023/07/28 12:01:57;;;;;;;0.67;0.57;;;;;;;;;;5115817;28;20424;-59
2023/07/28 12:04:31;;;;;;;0.53;0.50;;;;;;;;;;5099116;28;20498;-59
2023/07/28 12:07:12;;;;;;;1.03;0.77;;;;;;;;;;5109695;28;20015;-59
2023/07/28 12:09:58;;;;;;;0.50;0.47;;;;;;;;;;5110039;28;20031;-60
2023/07/28 12:12:31;;;;;;;1.17;0.87;;;;;;;;;;5110153;28;20031;-59
2023/07/28 12:15:04;;;;;;;1.20;1.03;;;;;;;;;;5110943;28;20463;-59
2023/07/28 12:17:31;;;;;;;6.43;1.13;;;;;;;;;;5115363;28;20067;-59
2023/07/28 12:19:58;;;;;;;6.57;1.00;;;;;;;;;;5115687;28;20028;-59
2023/07/28 12:22:26;;;;;;;2.73;1.40;;;;;;;;;;5115488;28;20028;-59
2023/07/28 12:24:54;;;;;;;1.63;0.87;;;;;;;;;;5115192;28;20035;-59
2023/07/28 12:27:23;;;;;;;1.13;0.80;;;;;;;;;;5113303;28;20103;-59
2023/07/28 12:29:50;;;;;;;3.37;1.20;;;;;;;;;;5109602;28;20509;-59
2023/07/28 12:32:17;;;;;;;0.93;0.67;;;;;;;;;;5109674;28;20402;-60
2023/07/28 12:34:44;;;;;;;1.70;1.20;;;;;;;;;;5109709;28;20048;-59
2023/07/28 12:37:11;;;;;;;20.30;1.07;;;;;;;;;;5110315;28;20020;-59
2023/07/28 12:39:41;;;;;;;1.10;0.90;;;;;;;;;;5115249;28;20054;-59
2023/07/28 12:42:11;;;;;;;0.70;0.67;;;;;;;;;;5114691;28;20420;-59
2023/07/28 12:44:39;;;;;;;1.33;1.07;;;;;;;;;;5115155;28;20042;-59
2023/07/28 12:47:06;;;;;;;1.23;1.07;;;;;;;;;;5115036;28;20482;-59
2023/07/28 12:49:34;;;;;;;8.53;3.97;;;;;;;;;;5113811;28;20028;-59
2023/07/28 12:52:02;;;;;;;3.00;1.63;;;;;;;;;;5109083;28;20063;-60
2023/07/28 12:54:29;;;;;;;2.13;1.63;;;;;;;;;;5109385;28;20455;-60
2023/07/28 12:56:56;;;;;;;4.63;1.80;;;;;;;;;;5108818;28;20027;-60
2023/07/28 12:59:25;;;;;;;3.63;1.93;;;;;;;;;;5109982;28;20163;-59
2023/07/28 13:01:52;;;;;;;5.03;2.77;;;;;;;;;;5114797;28;20043;-60
2023/07/28 13:04:19;;;;;;;5.03;2.57;;;;;;;;;;5114889;28;20452;-60
2023/07/28 13:06:45;;;;;;;4.93;1.83;;;;;;;;;;5114343;28;20066;-59
2023/07/28 13:09:12;;;;;;;3.17;2.10;;;;;;;;;;5114681;28;20020;-60
2023/07/28 13:11:39;;;;;;;11.53;2.50;;;;;;;;;;5113677;28;20118;-60
2023/07/28 13:14:06;;;;;;;2.17;1.10;;;;;;;;;;5108705;28;20020;-60
2023/07/28 13:16:33;;;;;;;7.67;2.07;;;;;;;;;;5108618;28;20028;-60
2023/07/28 13:18:59;;;;;;;2.90;1.63;;;;;;;;;;5109038;28;20386;-60
2023/07/28 13:21:26;;;;;;;3.60;2.00;;;;;;;;;;5108769;28;20035;-60
2023/07/28 13:23:53;;;;;;;2.27;1.60;;;;;;;;;;5114286;28;20422;-60
2023/07/28 13:26:20;;;;;;;1.63;1.30;;;;;;;;;;5114191;28;20058;-60
2023/07/28 13:28:47;;;;;;;2.60;1.63;;;;;;;;;;5113577;28;20057;-60
2023/07/28 13:31:16;;;;;;;1.40;1.00;;;;;;;;;;5112722;28;20039;-60
2023/07/28 13:33:43;;;;;;;3.47;1.70;;;;;;;;;;5111683;28;20034;-61
2023/07/28 13:36:10;;;;;;;5.00;2.67;;;;;;;;;;5108558;28;20511;-60
2023/07/28 13:38:37;;;;;;;2.90;1.90;;;;;;;;;;5107797;28;20028;-61
2023/07/28 13:41:05;;;;;;;2.57;1.90;;;;;;;;;;5108378;28;20019;-60
2023/07/28 13:43:34;;;;;;;1.63;1.20;;;;;;;;;;5107826;28;20102;-61
2023/07/28 13:46:02;;;;;;;3.30;1.77;;;;;;;;;;5113593;28;20565;-60
2023/07/28 13:48:29;;;;;;;5.30;1.67;;;;;;;;;;5113339;28;20031;-60
2023/07/28 13:50:55;;;;;;;2.10;1.33;;;;;;;;;;5113114;28;20072;-60
2023/07/28 13:53:22;;;;;;;3.23;1.50;;;;;;;;;;5113930;28;20027;-60
2023/07/28 13:55:49;;;;;;;1.60;0.80;;;;;;;;;;5113691;28;20019;-60
2023/07/28 13:58:16;;;;;;;1.30;0.77;;;;;;;;;;5107700;28;20030;-61
2023/07/28 14:00:43;;;;;;;3.43;1.27;;;;;;;;;;5107916;28;20029;-60
2023/07/28 14:03:09;;;;;;;1.33;1.10;;;;;;;;;;5107092;28;20052;-60
2023/07/28 14:05:36;;;;;;;2.67;1.80;;;;;;;;;;5107706;28;20032;-61
2023/07/28 14:08:03;;;;;;;5.27;1.57;;;;;;;;;;5112237;28;20459;-61
2023/07/28 14:10:32;;;;;;;3.80;2.23;;;;;;;;;;5113271;28;20031;-60
2023/07/28 14:12:59;;;;;;;3.83;2.33;;;;;;;;;;5095158;28;20055;-60
2023/07/28 14:15:26;;;;;;;5.03;1.60;;;;;;;;;;5113368;28;20019;-60
2023/07/28 14:17:52;;;;;;;2.40;1.70;;;;;;;;;;5112990;28;20035;-60
2023/07/28 14:20:19;;;;;;;2.93;1.37;;;;;;;;;;5107765;28;20058;-61
2023/07/28 14:22:46;;;;;;;2.70;1.20;;;;;;;;;;5107625;28;20020;-61
2023/07/28 14:25:13;;;;;;;1.67;1.17;;;;;;;;;;5107541;28;20551;-61
2023/07/28 14:27:40;;;;;;;1.40;0.70;;;;;;;;;;5106564;28;20315;-61
2023/07/28 14:30:07;;;;;;;2.53;1.20;;;;;;;;;;5112028;28;20024;-61
2023/07/28 14:32:33;;;;;;;18.13;1.67;;;;;;;;;;5113122;28;20127;-61
2023/07/28 14:35:00;;;;;;;3.27;1.30;;;;;;;;;;5112996;28;20387;-61
2023/07/28 14:37:27;;;;;;;4.73;1.83;;;;;;;;;;5112736;28;20360;-61
2023/07/28 14:39:54;;;;;;;1.57;1.13;;;;;;;;;;5112569;28;20020;-61
2023/07/28 14:42:21;;;;;;;3.23;1.50;;;;;;;;;;5108082;28;20075;-61
2023/07/28 14:44:47;;;;;;;1.53;1.10;;;;;;;;;;5107977;28;20028;-61